createdAt,value
2023-02-22T00:02:10.179Z,1015.56
2023-02-22T00:07:17.233Z,1015.49
2023-02-22T00:12:24.433Z,1015.58
2023-02-22T00:17:31.626Z,1015.57
2023-02-22T00:22:38.818Z,1015.57
2023-02-22T00:27:45.985Z,1015.60
2023-02-22T00:32:53.208Z,1015.62
2023-02-22T00:38:00.356Z,1015.60
2023-02-22T00:43:07.538Z,1015.64
2023-02-22T00:48:15.754Z,1015.56
2023-02-22T00:53:22.915Z,1015.58
2023-02-22T00:58:30.097Z,1015.56
2023-02-22T01:03:37.305Z,1015.58
2023-02-22T01:08:44.473Z,1015.50
2023-02-22T01:13:51.640Z,1015.50
2023-02-22T01:18:58.859Z,1015.48
2023-02-22T01:24:06.012Z,1015.43
2023-02-22T01:29:13.182Z,1015.42
2023-02-22T01:34:20.418Z,1015.39
2023-02-22T01:39:27.559Z,1015.27
2023-02-22T01:44:34.764Z,1015.29
2023-02-22T01:49:41.951Z,1015.18
2023-02-22T01:54:49.106Z,1015.18
2023-02-22T01:59:56.311Z,1015.22
2023-02-22T02:05:03.570Z,1015.20
2023-02-22T02:10:10.716Z,1015.17
2023-02-22T02:15:17.925Z,1015.16
2023-02-22T02:20:25.159Z,1015.17
2023-02-22T02:25:32.337Z,1015.13
2023-02-22T02:30:39.609Z,1015.16
2023-02-22T02:35:46.697Z,1015.12
2023-02-22T02:40:53.842Z,1015.07
2023-02-22T02:46:01.065Z,1015.01
2023-02-22T02:51:08.286Z,1015.04
2023-02-22T02:56:15.446Z,1014.98
2023-02-22T03:01:22.657Z,1014.92
2023-02-22T03:06:29.821Z,1014.90
2023-02-22T03:11:36.994Z,1014.84
2023-02-22T03:16:44.233Z,1014.80
2023-02-22T03:21:51.367Z,1014.75
2023-02-22T03:26:58.548Z,1014.71
2023-02-22T03:32:05.763Z,1014.65
2023-02-22T03:37:13.036Z,1014.61
2023-02-22T03:42:20.197Z,1014.56
2023-02-22T03:47:27.403Z,1014.56
2023-02-22T03:52:34.593Z,1014.57
2023-02-22T03:57:41.754Z,1014.60
2023-02-22T04:02:48.950Z,1014.61
2023-02-22T04:07:56.166Z,1014.54
2023-02-22T04:13:03.338Z,1014.61
2023-02-22T04:18:10.522Z,1014.59
2023-02-22T04:23:17.716Z,1014.58
2023-02-22T04:28:24.989Z,1014.60
2023-02-22T04:33:32.165Z,1014.57
2023-02-22T04:38:39.369Z,1014.53
2023-02-22T04:43:46.514Z,1014.49
2023-02-22T04:48:53.692Z,1014.50
2023-02-22T04:54:00.891Z,1014.48
2023-02-22T04:59:08.070Z,1014.49
2023-02-22T05:04:15.252Z,1014.49
2023-02-22T05:09:22.456Z,1014.46
2023-02-22T05:14:29.663Z,1014.45
2023-02-22T05:19:36.908Z,1014.44
2023-02-22T05:24:44.141Z,1014.45
2023-02-22T05:29:51.276Z,1014.39
2023-02-22T05:34:58.504Z,1014.47
2023-02-22T05:40:05.726Z,1014.42
2023-02-22T05:45:12.932Z,1014.45
2023-02-22T05:50:20.106Z,1014.45
2023-02-22T05:55:27.333Z,1014.44
2023-02-22T06:00:34.540Z,1014.46
2023-02-22T06:05:41.788Z,1014.41
2023-02-22T06:10:48.963Z,1014.44
2023-02-22T06:15:56.144Z,1014.47
2023-02-22T06:21:03.316Z,1014.51
2023-02-22T06:26:10.584Z,1014.60
2023-02-22T06:31:18.155Z,1014.72
2023-02-22T06:36:24.842Z,1014.76
2023-02-22T06:41:32.086Z,1014.85
2023-02-22T06:46:39.246Z,1014.92
2023-02-22T06:51:46.418Z,1014.96
2023-02-22T06:56:53.690Z,1014.98
2023-02-22T07:02:00.910Z,1015.06
2023-02-22T07:07:08.112Z,1015.09
2023-02-22T07:12:15.301Z,1015.08
2023-02-22T07:17:22.463Z,1015.10
2023-02-22T07:22:29.754Z,1015.15
2023-02-22T07:27:36.955Z,1015.16
2023-02-22T07:32:44.432Z,1015.14
2023-02-22T07:37:52.871Z,1015.10
2023-02-22T07:42:58.615Z,1015.02
2023-02-22T07:48:05.778Z,1014.98
2023-02-22T07:53:12.911Z,1014.98
2023-02-22T07:58:20.129Z,1014.96
2023-02-22T08:03:27.475Z,1014.91
2023-02-22T08:08:34.590Z,1014.82
2023-02-22T08:13:41.803Z,1014.91
2023-02-22T08:18:48.953Z,1014.85
2023-02-22T08:23:56.130Z,1014.78
2023-02-22T08:29:03.368Z,1014.72
2023-02-22T08:34:10.556Z,1014.72
2023-02-22T08:39:17.821Z,1014.72
2023-02-22T08:44:25.080Z,1014.69
2023-02-22T08:49:32.282Z,1014.72
2023-02-22T08:54:39.454Z,1014.67
2023-02-22T08:59:46.754Z,1014.62
2023-02-22T09:04:53.886Z,1014.60
2023-02-22T09:10:01.058Z,1014.57
2023-02-22T09:15:08.323Z,1014.58
2023-02-22T09:20:15.472Z,1014.57
2023-02-22T09:25:22.708Z,1014.52
2023-02-22T09:30:29.873Z,1014.48
2023-02-22T09:35:37.018Z,1014.44
2023-02-22T09:40:44.210Z,1014.40
2023-02-22T09:45:51.484Z,1014.38
2023-02-22T09:50:58.643Z,1014.32
2023-02-22T09:56:05.816Z,1014.29
2023-02-22T10:01:13.082Z,1014.27
2023-02-22T10:06:20.226Z,1014.24
2023-02-22T10:11:27.443Z,1014.20
2023-02-22T10:16:34.638Z,1014.17
2023-02-22T10:21:41.781Z,1014.12
2023-02-22T10:26:48.970Z,1014.06
2023-02-22T10:31:56.291Z,1014.06
2023-02-22T10:37:03.368Z,1014.05
2023-02-22T10:42:10.530Z,1014.00
2023-02-22T10:47:18.329Z,1013.99
2023-02-22T10:52:25.041Z,1013.95
2023-02-22T10:57:32.204Z,1013.95
2023-02-22T11:02:39.434Z,1013.88
2023-02-22T11:07:46.550Z,1013.83
2023-02-22T11:12:53.840Z,1013.71
2023-02-22T11:18:01.126Z,1013.62
2023-02-22T11:23:08.396Z,1013.56
2023-02-22T11:28:15.522Z,1013.45
2023-02-22T11:33:22.749Z,1013.35
2023-02-22T11:38:29.881Z,1013.30
2023-02-22T11:43:37.136Z,1013.23
2023-02-22T11:48:44.354Z,1013.14
2023-02-22T11:53:51.515Z,1013.08
2023-02-22T11:58:58.708Z,1013.04
2023-02-22T12:04:06.103Z,1013.04
2023-02-22T12:09:13.179Z,1012.92
2023-02-22T12:14:20.447Z,1012.86
2023-02-22T12:19:27.659Z,1012.82
2023-02-22T12:24:34.814Z,1012.83
2023-02-22T12:29:42.079Z,1012.74
2023-02-22T12:34:49.313Z,1012.74
2023-02-22T12:39:56.499Z,1012.68
2023-02-22T12:45:05.777Z,1012.66
2023-02-22T12:50:10.882Z,1012.67
2023-02-22T12:55:18.018Z,1012.61
2023-02-22T13:00:25.213Z,1012.57
2023-02-22T13:05:32.493Z,1012.57
2023-02-22T13:10:39.591Z,1012.50
2023-02-22T13:15:46.794Z,1012.54
2023-02-22T13:20:53.972Z,1012.51
2023-02-22T13:26:01.126Z,1012.51
2023-02-22T13:31:08.405Z,1012.49
2023-02-22T13:36:15.907Z,1012.48
2023-02-22T13:41:22.725Z,1012.40
2023-02-22T13:46:29.906Z,1012.45
2023-02-22T13:51:37.078Z,1012.41
2023-02-22T13:56:44.244Z,1012.45
2023-02-22T14:01:51.496Z,1012.49
2023-02-22T14:06:58.738Z,1012.46
2023-02-22T14:12:05.881Z,1012.52
2023-02-22T14:17:13.469Z,1012.47
2023-02-22T14:22:20.733Z,1012.53
2023-02-22T14:27:27.864Z,1012.54
2023-02-22T14:32:35.231Z,1012.51
2023-02-22T14:37:42.239Z,1012.57
2023-02-22T14:42:49.478Z,1012.62
2023-02-22T14:47:56.588Z,1012.60
2023-02-22T14:53:03.885Z,1012.55
2023-02-22T14:58:10.960Z,1012.57
2023-02-22T15:03:18.252Z,1012.51
2023-02-22T15:08:25.461Z,1012.52
2023-02-22T15:13:32.634Z,1012.46
2023-02-22T15:18:39.895Z,1012.41
2023-02-22T15:23:47.257Z,1012.45
2023-02-22T15:28:54.287Z,1012.49
2023-02-22T15:34:01.437Z,1012.52
2023-02-22T15:39:08.703Z,1012.48
2023-02-22T15:44:23.687Z,1012.53
2023-02-22T15:49:23.901Z,1012.53
2023-02-22T15:54:31.124Z,1012.52
2023-02-22T15:59:38.311Z,1012.48
2023-02-22T16:04:54.525Z,1012.51
2023-02-22T16:09:52.782Z,1012.54
2023-02-22T16:14:59.994Z,1012.60
2023-02-22T16:20:07.413Z,1012.64
2023-02-22T16:25:15.057Z,1012.62
2023-02-22T16:30:24.926Z,1012.65
2023-02-22T16:35:29.699Z,1012.66
2023-02-22T16:40:37.375Z,1012.66
2023-02-22T16:45:45.070Z,1012.69
2023-02-22T16:50:52.327Z,1012.75
2023-02-22T16:55:59.615Z,1012.80
2023-02-22T17:01:07.109Z,1012.84
2023-02-22T17:06:14.731Z,1012.90
2023-02-22T17:11:22.081Z,1012.95
2023-02-22T17:16:29.518Z,1013.03
2023-02-22T17:21:36.833Z,1013.11
2023-02-22T17:26:44.371Z,1013.14
2023-02-22T17:31:51.655Z,1013.17
2023-02-22T17:36:59.159Z,1013.23
2023-02-22T17:42:06.794Z,1013.31
2023-02-22T17:47:13.995Z,1013.36
2023-02-22T17:52:21.492Z,1013.38
2023-02-22T17:57:29.022Z,1013.42
2023-02-22T18:02:36.413Z,1013.45
2023-02-22T18:07:44.120Z,1013.47
2023-02-22T18:12:51.860Z,1013.48
2023-02-22T18:17:59.454Z,1013.46
2023-02-22T18:23:07.165Z,1013.48
2023-02-22T18:28:14.876Z,1013.49
2023-02-22T18:33:22.499Z,1013.43
2023-02-22T18:38:29.939Z,1013.44
2023-02-22T18:43:37.447Z,1013.38
2023-02-22T18:48:44.814Z,1013.35
2023-02-22T18:53:52.255Z,1013.37
2023-02-22T18:58:59.908Z,1013.41
2023-02-22T19:04:07.467Z,1013.41
2023-02-22T19:09:16.117Z,1013.43
2023-02-22T19:14:24.291Z,1013.40
2023-02-22T19:19:31.666Z,1013.40
2023-02-22T19:24:39.263Z,1013.37
2023-02-22T19:29:49.060Z,1013.34
2023-02-22T19:34:54.610Z,1013.34
2023-02-22T19:40:02.200Z,1013.36
2023-02-22T19:45:09.940Z,1013.38
2023-02-22T19:50:17.533Z,1013.44
2023-02-22T19:55:24.820Z,1013.42
2023-02-22T20:00:32.490Z,1013.49
2023-02-22T20:05:40.087Z,1013.47
2023-02-22T20:10:47.686Z,1013.52
2023-02-22T20:15:55.008Z,1013.52
2023-02-22T20:21:02.568Z,1013.45
2023-02-22T20:26:10.438Z,1013.55
2023-02-22T20:31:18.494Z,1013.64
2023-02-22T20:36:25.757Z,1013.61
2023-02-22T20:41:33.472Z,1013.66
2023-02-22T20:46:42.137Z,1013.68
2023-02-22T20:51:49.933Z,1013.70
2023-02-22T20:56:57.542Z,1013.64
2023-02-22T21:02:04.979Z,1013.62
2023-02-22T21:07:12.470Z,1013.62
2023-02-22T21:12:20.088Z,1013.58
2023-02-22T21:17:27.720Z,1013.59
2023-02-22T21:22:35.087Z,1013.56
2023-02-22T21:27:42.621Z,1013.57
2023-02-22T21:32:50.086Z,1013.55
2023-02-22T21:37:57.550Z,1013.51
2023-02-22T21:43:04.968Z,1013.49
2023-02-22T21:48:12.500Z,1013.53
2023-02-22T21:53:19.833Z,1013.43
2023-02-22T21:58:27.087Z,1013.46
2023-02-22T22:03:34.307Z,1013.47
2023-02-22T22:08:41.636Z,1013.43
2023-02-22T22:13:48.894Z,1013.46
2023-02-22T22:18:56.097Z,1013.46
2023-02-22T22:24:03.318Z,1013.46
2023-02-22T22:29:10.506Z,1013.51
2023-02-22T22:34:17.697Z,1013.50
2023-02-22T22:39:24.866Z,1013.53
2023-02-22T22:44:32.074Z,1013.54
2023-02-22T22:49:39.392Z,1013.52
2023-02-22T22:54:46.623Z,1013.45
2023-02-22T22:59:53.841Z,1013.49
2023-02-22T23:05:01.120Z,1013.52
2023-02-22T23:10:08.279Z,1013.51
2023-02-22T23:15:15.447Z,1013.51
2023-02-22T23:20:22.684Z,1013.53
2023-02-22T23:25:29.892Z,1013.52
2023-02-22T23:30:37.136Z,1013.55
2023-02-22T23:35:44.348Z,1013.54
2023-02-22T23:40:51.591Z,1013.58
2023-02-22T23:45:58.794Z,1013.58
2023-02-22T23:51:05.980Z,1013.50
2023-02-22T23:56:13.138Z,1013.55
